Good Hope, Minnesota
Current Conditions -  °F | °C
As of 4:13 PM on Wednesday 28 Jan 2015 (Local Time) from KFOZ Reporting Station
Haze Haze  
Wind Chill: 22°   Ceiling: 400
Heat Index: 28°   Visibility: 1.2mi
Dew Point: 27°   Wind: 6mph
Humidity: 93%   Direction: 170°S
Pressure: 29.79"   Gusts: NA
Location:  47.6295°N, 94.1797°W
Report Text: KFOZ 282213Z AUTO 17005KT 1 1/4SM BR OVC004 M02/M03 A2979 RMK AO2
Loading
Personal Weather Stations






























Interactive Weather Map New forecast layout! Learn more

10-Day Weather Forecast

Advertisements
Track Severe Weather on mobile